Terminal Aerodrome Forecast
Issued by NWS

Home | Current Version | Previous Version | Text Only | Print | Product List | Glossary On
Versions: 1 2 3 4 5 6 7 8 9 10 11 12 13 14
941
FTPA31 PHFO 010529
TAFHJR
TAF
PHJR 010529Z 0106/0206 04005KT P6SM FEW030 SCT040
     FM011900 06011G18KT P6SM FEW030 SCT050
     FM020500 06011KT P6SM SCT030 SCT050=

USA.gov is the U.S. government's official web portal to all federal, state and local government web resources and services.